| time (UTC) | temp C | wind direction | speed KPH | gust KPH | rain 1hr cm | rain 24hr cm | rain mn cm | humidity % | barometer mb |
| 20260510020609 | 15 | 252 | 20.9 | 40.2 | 0.00 | 0.33 | 0.10 | 81 | 999.4 |
| 20260510015607 | 15 | 278 | 22.5 | 38.6 | 0.00 | 0.33 | 0.10 | 81 | 998.9 |
| 20260510014543 | 15 | 259 | 29.0 | 51.5 | 0.00 | 0.33 | 0.10 | 81 | 998.7 |
| 20260510013541 | 15 | 248 | 27.4 | 43.5 | 0.00 | 0.33 | 0.10 | 81 | 998.9 |
| 20260510012558 | 15 | 255 | 25.7 | 40.2 | 0.00 | 0.33 | 0.10 | 81 | 999.1 |
| 20260510011535 | 15 | 281 | 29.0 | 43.5 | 0.00 | 0.33 | 0.10 | 81 | 998.5 |
| 20260510010534 | 15 | 239 | 32.2 | 48.3 | 0.00 | 0.33 | 0.10 | 81 | 998.4 |
| 20260510005530 | 16 | 270 | 33.8 | 48.3 | 0.00 | 0.33 | 0.10 | 82 | 997.7 |
| 20260510004529 | 15 | 265 | 25.7 | 54.7 | 0.00 | 0.36 | 0.10 | 80 | 997.9 |
| 20260510003525 | 16 | 236 | 20.9 | 43.5 | 0.00 | 0.36 | 0.10 | 79 | 998.8 |
| 20260510002543 | 15 | 269 | 19.3 | 37.0 | 0.00 | 0.36 | 0.10 | 80 | 998.8 |
| 20260510001524 | 15 | 271 | 29.0 | 46.7 | 0.00 | 0.36 | 0.10 | 81 | 998.9 |
| 20260510000517 | 15 | 267 | 29.0 | 57.9 | 0.00 | 0.36 | 0.10 | 81 | 999.0 |
| 20260509235614 | 15 | 262 | 25.7 | 46.7 | 0.00 | 0.38 | 0.10 | 81 | 999.0 |
| 20260509234612 | 15 | 263 | 25.7 | 38.6 | 0.00 | 0.38 | 0.10 | 81 | 999.4 |
| 20260509233609 | 15 | 292 | 30.6 | 57.9 | 0.00 | 0.38 | 0.10 | 81 | 999.4 |
| 20260509232607 | 15 | 270 | 22.5 | 37.0 | 0.00 | 0.38 | 0.10 | 83 | 999.4 |
| 20260509231605 | 15 | 265 | 14.5 | 27.4 | 0.00 | 0.38 | 0.10 | 85 | 999.2 |
| 20260509230601 | 15 | 250 | 27.4 | 35.4 | 0.00 | 0.38 | 0.10 | 83 | 999.5 |
| 20260509225640 | 15 | 270 | 29.0 | 43.5 | 0.00 | 0.38 | 0.10 | 85 | 999.3 |
| 20260509224631 | 15 | 304 | 24.1 | 43.5 | 0.00 | 0.38 | 0.10 | 86 | 999.2 |
| 20260509223614 | 15 | 273 | 27.4 | 38.6 | 0.00 | 0.38 | 0.10 | 87 | 999.0 |
| 20260509222552 | 14 | 261 | 29.0 | 43.5 | 0.00 | 0.38 | 0.10 | 88 | 998.8 |
| 20260509221549 | 13 | 281 | 30.6 | 54.7 | 0.00 | 0.38 | 0.10 | 89 | 998.5 |
| 20260509220607 | 13 | 263 | 29.0 | 46.7 | 0.00 | 0.38 | 0.10 | 89 | 998.8 |
| 20260509215603 | 13 | 292 | 30.6 | 48.3 | 0.00 | 0.38 | 0.10 | 90 | 999.0 |
| 20260509214541 | 13 | 274 | 25.7 | 40.2 | 0.00 | 0.38 | 0.10 | 89 | 999.2 |
| 20260509213537 | 13 | 287 | 25.7 | 40.2 | 0.00 | 0.38 | 0.10 | 90 | 999.3 |
| 20260509212555 | 13 | 275 | 22.5 | 43.5 | 0.03 | 0.38 | 0.10 | 91 | 999.5 |
| 20260509211532 | 13 | 279 | 25.7 | 43.5 | 0.03 | 0.38 | 0.10 | 91 | 999.4 |
| 20260509210531 | 13 | 282 | 29.0 | 40.2 | 0.03 | 0.38 | 0.10 | 91 | 999.5 |
| 20260509205527 | 13 | 270 | 24.1 | 40.2 | 0.03 | 0.38 | 0.10 | 91 | 999.5 |
| 20260509204546 | 12 | 248 | 20.9 | 32.2 | 0.03 | 0.38 | 0.10 | 92 | 999.7 |
| 20260509203522 | 12 | 273 | 19.3 | 37.0 | 0.03 | 0.38 | 0.10 | 92 | 999.9 |
| 20260509202519 | 12 | 283 | 19.3 | 37.0 | 0.00 | 0.36 | 0.05 | 92 | 999.6 |
| 20260509201537 | 12 | 274 | 25.7 | 37.0 | 0.00 | 0.36 | 0.05 | 91 | 999.4 |
| 20260509200615 | 12 | 254 | 24.1 | 33.8 | 0.00 | 0.38 | 0.05 | 90 | 999.1 |
| 20260509195613 | 12 | 289 | 33.8 | 43.5 | 0.03 | 0.38 | 0.05 | 89 | 998.8 |
| 20260509194630 | 12 | 278 | 32.2 | 48.3 | 0.03 | 0.38 | 0.05 | 89 | 999.2 |
| 20260509193628 | 12 | 290 | 22.5 | 40.2 | 0.03 | 0.38 | 0.05 | 91 | 999.9 |
| 20260509192604 | 12 | 293 | 14.5 | 32.2 | 0.05 | 0.38 | 0.05 | 90 | 1000.1 |
| 20260509191602 | 12 | 306 | 8.0 | 14.5 | 0.05 | 0.43 | 0.05 | 90 | 1000.3 |
| 20260509190619 | 12 | 313 | 14.5 | 22.5 | 0.05 | 0.43 | 0.05 | 89 | 1000.2 |
| 20260509185556 | 12 | 293 | 17.7 | 25.7 | 0.03 | 0.38 | 0.03 | 89 | 1000.0 |
| 20260509184554 | 12 | 274 | 12.9 | 22.5 | 0.03 | 0.38 | 0.03 | 90 | 999.9 |
| 20260509183551 | 12 | 293 | 14.5 | 25.7 | 0.03 | 0.38 | 0.03 | 90 | 999.8 |
| 20260509182549 | 12 | 293 | 12.9 | 17.7 | 0.00 | 0.36 | 0.00 | 90 | 999.9 |
| 20260509181546 | 12 | 270 | 17.7 | 29.0 | 0.00 | 0.36 | 0.00 | 89 | 999.9 |
| 20260509180626 | 12 | 293 | 6.4 | 14.5 | 0.00 | 0.36 | 0.00 | 88 | 1000.0 |
| 20260509175541 | 12 | 282 | 9.7 | 22.5 | 0.00 | 0.36 | 0.00 | 88 | 999.9 |
| 20260509174600 | 12 | 273 | 8.0 | 17.7 | 0.00 | 0.36 | 0.00 | 88 | 1000.0 |
| 20260509173536 | 12 | 308 | 14.5 | 24.1 | 0.00 | 0.36 | 0.00 | 89 | 1000.1 |
| 20260509172533 | 12 | 293 | 11.3 | 17.7 | 0.00 | 0.36 | 0.00 | 88 | 999.7 |
| 20260509171530 | 12 | 291 | 19.3 | 35.4 | 0.00 | 0.36 | 0.00 | 87 | 999.4 |
| 20260509170529 | 12 | 270 | 17.7 | 32.2 | 0.00 | 0.36 | 0.00 | 87 | 999.0 |
| 20260509165526 | 12 | 274 | 25.7 | 48.3 | 0.00 | 0.36 | 0.00 | 88 | 998.6 |
| 20260509164523 | 12 | 281 | 29.0 | 40.2 | 0.00 | 0.36 | 0.00 | 88 | 998.3 |
| 20260509163520 | 11 | 270 | 27.4 | 37.0 | 0.00 | 0.36 | 0.00 | 88 | 998.3 |
| 20260509162518 | 11 | 283 | 22.5 | 43.5 | 0.00 | 0.36 | 0.00 | 89 | 998.6 |
| 20260509161619 | 11 | 270 | 30.6 | 43.5 | 0.00 | 0.36 | 0.00 | 89 | 998.4 |
| 20260509160614 | 11 | 260 | 27.4 | 49.9 | 0.00 | 0.36 | 0.00 | 90 | 998.3 |
| 20260509155611 | 11 | 293 | 29.0 | 46.7 | 0.00 | 0.36 | 0.00 | 90 | 998.3 |
| 20260509154628 | 11 | 277 | 30.6 | 43.5 | 0.00 | 0.36 | 0.00 | 90 | 998.5 |
| 20260509153605 | 11 | 279 | 29.0 | 51.5 | 0.00 | 0.36 | 0.00 | 89 | 998.6 |
| 20260509152602 | 11 | 278 | 27.4 | 40.2 | 0.00 | 0.36 | 0.00 | 89 | 998.6 |
| 20260509151621 | 11 | 293 | 30.6 | 48.3 | 0.00 | 0.36 | 0.00 | 89 | 998.7 |
| 20260509150618 | 11 | 279 | 29.0 | 43.5 | 0.00 | 0.36 | 0.00 | 89 | 999.0 |
| 20260509145554 | 11 | 280 | 22.5 | 46.7 | 0.00 | 0.36 | 0.00 | 89 | 999.2 |
| 20260509144613 | 11 | 281 | 24.1 | 40.2 | 0.00 | 0.36 | 0.00 | 89 | 999.3 |
| 20260509143549 | 11 | 296 | 22.5 | 40.2 | 0.00 | 0.36 | 0.00 | 88 | 999.5 |
| 20260509142547 | 11 | 300 | 24.1 | 43.5 | 0.00 | 0.36 | 0.00 | 88 | 999.5 |
| 20260509141544 | 11 | 274 | 29.0 | 48.3 | 0.00 | 0.36 | 0.00 | 89 | 999.4 |
| 20260509140541 | 11 | 274 | 22.5 | 35.4 | 0.00 | 0.36 | 0.00 | 89 | 999.5 |
| 20260509135619 | 11 | 296 | 20.9 | 35.4 | 0.00 | 0.36 | 0.00 | 88 | 999.6 |
| 20260509134537 | 12 | 279 | 25.7 | 37.0 | 0.00 | 0.36 | 0.00 | 85 | 999.9 |
| 20260509133534 | 12 | 273 | 22.5 | 35.4 | 0.00 | 0.36 | 0.00 | 85 | 999.8 |
| 20260509132557 | 12 | 270 | 19.3 | 35.4 | 0.00 | 0.36 | 0.00 | 85 | 1000.0 |
| 20260509131529 | 12 | 297 | 20.9 | 35.4 | 0.00 | 0.36 | 0.00 | 83 | 999.9 |
| 20260509130526 | 12 | 287 | 16.1 | 27.4 | 0.00 | 0.36 | 0.00 | 84 | 1000.0 |
| 20260509125544 | 12 | 288 | 14.5 | 27.4 | 0.00 | 0.43 | 0.00 | 83 | 1000.4 |
| 20260509124542 | 12 | 306 | 12.9 | 24.1 | 0.00 | 0.43 | 0.00 | 83 | 1000.5 |
| 20260509123518 | 12 | 285 | 14.5 | 25.7 | 0.00 | 0.43 | 0.00 | 83 | 1000.5 |
| 20260509122536 | 12 | 273 | 12.9 | 27.4 | 0.00 | 0.46 | 0.00 | 83 | 1000.5 |
| 20260509121614 | 12 | 293 | 14.5 | 25.7 | 0.00 | 0.46 | 0.00 | 84 | 1000.6 |
| 20260509120611 | 12 | 277 | 11.3 | 22.5 | 0.00 | 0.51 | 0.00 | 84 | 1000.5 |
| 20260509115609 | 12 | 285 | 12.9 | 24.1 | 0.00 | 0.51 | 0.51 | 84 | 1000.7 |
| 20260509114631 | 12 | 299 | 9.7 | 22.5 | 0.00 | 0.51 | 0.51 | 84 | 1000.9 |
| 20260509113624 | 12 | 270 | 12.9 | 22.5 | 0.00 | 0.51 | 0.51 | 84 | 1000.8 |
| 20260509112642 | 12 | 298 | 9.7 | 25.7 | 0.00 | 0.51 | 0.51 | 84 | 1000.9 |
| 20260509111620 | 12 | 289 | 12.9 | 22.5 | 0.00 | 0.51 | 0.51 | 84 | 1001.1 |
| 20260509110556 | 12 | 287 | 11.3 | 22.5 | 0.00 | 0.51 | 0.51 | 84 | 1001.2 |
| 20260509105552 | 12 | 293 | 11.3 | 22.5 | 0.00 | 0.51 | 0.51 | 85 | 1001.2 |
| 20260509104550 | 12 | 290 | 8.0 | 17.7 | 0.00 | 0.51 | 0.51 | 85 | 1001.2 |
| 20260509103547 | 12 | 286 | 6.4 | 17.7 | 0.00 | 0.51 | 0.51 | 85 | 1001.3 |
| 20260509102545 | 12 | 322 | 6.4 | 17.7 | 0.00 | 0.51 | 0.51 | 85 | 1001.4 |
| 20260509101604 | 12 | 347 | 6.4 | 17.7 | 0.00 | 0.51 | 0.51 | 84 | 1001.4 |
| 20260509100540 | 12 | 307 | 6.4 | 12.9 | 0.00 | 0.51 | 0.51 | 83 | 1001.5 |
| 20260509095537 | 12 | 352 | 4.8 | 11.3 | 0.00 | 0.51 | 0.51 | 82 | 1001.4 |
| 20260509094535 | 12 | 295 | 4.8 | 9.7 | 0.00 | 0.51 | 0.51 | 82 | 1001.5 |
| 20260509093532 | 12 | 21 | 3.2 | 6.4 | 0.00 | 0.51 | 0.51 | 82 | 1001.3 |
| 20260509092551 | 12 | 278 | 3.2 | 6.4 | 0.00 | 0.51 | 0.51 | 81 | 1001.3 |
| 20260509091527 | 12 | 310 | 3.2 | 9.7 | 0.00 | 0.51 | 0.51 | 80 | 1001.3 |
| 20260509090525 | 12 | 358 | 3.2 | 6.4 | 0.00 | 0.51 | 0.51 | 80 | 1001.1 |
| 20260509085522 | 12 | 246 | 1.6 | 6.4 | 0.00 | 0.51 | 0.51 | 80 | 1001.0 |
| 20260509084519 | 13 | 268 | 6.4 | 17.7 | 0.00 | 0.53 | 0.51 | 79 | 1000.7 |
| 20260509083516 | 13 | 268 | 4.8 | 14.5 | 0.00 | 0.53 | 0.51 | 78 | 1000.6 |
| 20260509082616 | 13 | 260 | 9.7 | 24.1 | 0.00 | 0.53 | 0.51 | 79 | 1000.4 |
| 20260509081612 | 13 | 293 | 20.9 | 32.2 | 0.00 | 0.53 | 0.51 | 79 | 1000.1 |
| 20260509080650 | 13 | 283 | 14.5 | 25.7 | 0.00 | 0.53 | 0.51 | 81 | 1000.3 |
| 20260509075607 | 13 | 276 | 9.7 | 22.5 | 0.00 | 0.53 | 0.51 | 81 | 1000.7 |
| 20260509074604 | 13 | 305 | 12.9 | 29.0 | 0.00 | 0.53 | 0.51 | 81 | 1000.8 |
| 20260509073601 | 13 | 296 | 12.9 | 29.0 | 0.00 | 0.53 | 0.51 | 82 | 1000.7 |
| 20260509072619 | 13 | 275 | 12.9 | 24.1 | 0.00 | 0.53 | 0.51 | 82 | 1000.8 |
| 20260509071556 | 13 | 264 | 11.3 | 25.7 | 0.00 | 0.53 | 0.51 | 82 | 1000.7 |
| 20260509070554 | 13 | 283 | 12.9 | 25.7 | 0.00 | 0.53 | 0.51 | 82 | 1000.6 |
| 20260509065551 | 13 | 251 | 11.3 | 20.9 | 0.00 | 0.53 | 0.51 | 81 | 1000.8 |
| 20260509064548 | 13 | 256 | 17.7 | 38.6 | 0.00 | 0.53 | 0.51 | 81 | 1000.8 |
| 20260509063546 | 13 | 260 | 16.1 | 25.7 | 0.00 | 0.53 | 0.51 | 81 | 1000.9 |
| 20260509062543 | 13 | 261 | 16.1 | 33.8 | 0.00 | 0.53 | 0.51 | 84 | 1000.8 |
| 20260509061541 | 13 | 250 | 16.1 | 29.0 | 0.05 | 0.53 | 0.51 | 85 | 1000.8 |
| 20260509060538 | 14 | 250 | 19.3 | 46.7 | 0.05 | 0.53 | 0.51 | 85 | 1000.6 |
| 20260509055535 | 13 | 248 | 20.9 | 43.5 | 0.05 | 0.53 | 0.51 | 88 | 1000.5 |
| 20260509054534 | 14 | 245 | 16.1 | 32.2 | 0.05 | 0.53 | 0.51 | 88 | 1000.4 |
| 20260509053531 | 14 | 242 | 20.9 | 37.0 | 0.05 | 0.53 | 0.51 | 88 | 1000.4 |
| 20260509052548 | 14 | 280 | 19.3 | 35.4 | 0.05 | 0.53 | 0.51 | 89 | 1000.5 |
| 20260509051525 | 14 | 276 | 16.1 | 27.4 | 0.00 | 0.48 | 0.46 | 87 | 1000.3 |
| 20260509050524 | 14 | 265 | 14.5 | 27.4 | 0.00 | 0.48 | 0.46 | 87 | 1000.3 |
| 20260509045520 | 14 | 270 | 17.7 | 29.0 | 0.15 | 0.48 | 0.46 | 87 | 1000.5 |
| 20260509044517 | 14 | 278 | 19.3 | 37.0 | 0.18 | 0.48 | 0.46 | 87 | 1000.2 |
| 20260509043615 | 14 | 267 | 19.3 | 38.6 | 0.18 | 0.48 | 0.46 | 87 | 1000.1 |
| 20260509042613 | 14 | 266 | 14.5 | 25.7 | 0.18 | 0.48 | 0.46 | 88 | 999.9 |
| 20260509041611 | 14 | 277 | 17.7 | 35.4 | 0.18 | 0.48 | 0.46 | 89 | 999.8 |
| 20260509040607 | 13 | 254 | 20.9 | 35.4 | 0.18 | 0.48 | 0.46 | 90 | 999.9 |
| 20260509035606 | 15 | 236 | 29.0 | 46.7 | 0.03 | 0.33 | 0.30 | 86 | 1000.2 |
| 20260509034602 | 15 | 270 | 17.7 | 25.7 | 0.00 | 0.30 | 0.28 | 84 | 1000.1 |
| 20260509033559 | 15 | 268 | 19.3 | 35.4 | 0.00 | 0.30 | 0.28 | 83 | 1000.3 |
| 20260509032557 | 15 | 270 | 17.7 | 40.2 | 0.00 | 0.30 | 0.28 | 84 | 1000.3 |
| 20260509031554 | 15 | 269 | 14.5 | 25.7 | 0.00 | 0.30 | 0.28 | 84 | 1000.2 |
| 20260509030552 | 16 | 266 | 17.7 | 35.4 | 0.00 | 0.30 | 0.28 | 83 | 999.8 |
| 20260509025550 | 16 | 278 | 19.3 | 32.2 | 0.00 | 0.30 | 0.28 | 82 | 999.8 |
| 20260509024607 | 15 | 260 | 24.1 | 48.3 | 0.00 | 0.30 | 0.28 | 82 | 999.6 |
| 20260509023544 | 15 | 286 | 14.5 | 25.7 | 0.00 | 0.30 | 0.28 | 86 | 999.7 |
| 20260509022541 | 15 | 266 | 22.5 | 51.5 | 0.00 | 0.30 | 0.28 | 85 | 999.4 |
| 20260509021544 | 16 | 270 | 29.0 | 46.7 | 0.00 | 0.30 | 0.28 | 81 | 999.3 |